sensor_id;sensor_type;location;lat;lon;timestamp;P1;durP1;ratioP1;P2;durP2;ratioP2
9970;SDS011;5026;51.494;11.974;2024-03-02T00:00:29;54.50;;;25.33;;
9970;SDS011;5026;51.494;11.974;2024-03-02T00:02:56;55.73;;;26.03;;
9970;SDS011;5026;51.494;11.974;2024-03-02T00:05:25;53.63;;;25.37;;
9970;SDS011;5026;51.494;11.974;2024-03-02T00:07:53;59.23;;;26.07;;
9970;SDS011;5026;51.494;11.974;2024-03-02T00:10:22;58.50;;;26.83;;
9970;SDS011;5026;51.494;11.974;2024-03-02T00:12:54;52.83;;;27.10;;
9970;SDS011;5026;51.494;11.974;2024-03-02T00:18:08;57.30;;;26.10;;
9970;SDS011;5026;51.494;11.974;2024-03-02T00:20:40;56.20;;;24.80;;
9970;SDS011;5026;51.494;11.974;2024-03-02T00:23:08;50.10;;;24.43;;
9970;SDS011;5026;51.494;11.974;2024-03-02T00:25:38;45.33;;;24.53;;
9970;SDS011;5026;51.494;11.974;2024-03-02T00:28:10;59.43;;;26.30;;
9970;SDS011;5026;51.494;11.974;2024-03-02T00:30:54;50.60;;;25.97;;
9970;SDS011;5026;51.494;11.974;2024-03-02T00:33:23;54.83;;;26.03;;
9970;SDS011;5026;51.494;11.974;2024-03-02T00:35:55;61.10;;;27.87;;
9970;SDS011;5026;51.494;11.974;2024-03-02T00:38:22;57.70;;;26.53;;
9970;SDS011;5026;51.494;11.974;2024-03-02T00:40:49;56.73;;;25.90;;
9970;SDS011;5026;51.494;11.974;2024-03-02T00:46:23;56.70;;;25.27;;
9970;SDS011;5026;51.494;11.974;2024-03-02T00:48:53;49.27;;;26.10;;
9970;SDS011;5026;51.494;11.974;2024-03-02T00:51:22;57.27;;;27.30;;
9970;SDS011;5026;51.494;11.974;2024-03-02T00:53:51;56.80;;;26.00;;
9970;SDS011;5026;51.494;11.974;2024-03-02T00:56:20;53.60;;;26.63;;
9970;SDS011;5026;51.494;11.974;2024-03-02T00:58:48;61.80;;;26.40;;
9970;SDS011;5026;51.494;11.974;2024-03-02T01:01:15;62.27;;;28.23;;
9970;SDS011;5026;51.494;11.974;2024-03-02T01:03:42;55.80;;;26.47;;
9970;SDS011;5026;51.494;11.974;2024-03-02T01:06:09;58.53;;;25.87;;
9970;SDS011;5026;51.494;11.974;2024-03-02T01:08:37;54.23;;;26.83;;
9970;SDS011;5026;51.494;11.974;2024-03-02T01:11:04;53.93;;;25.47;;
9970;SDS011;5026;51.494;11.974;2024-03-02T01:13:31;60.93;;;26.17;;
9970;SDS011;5026;51.494;11.974;2024-03-02T01:15:58;55.13;;;25.47;;
9970;SDS011;5026;51.494;11.974;2024-03-02T01:18:26;52.60;;;24.73;;
9970;SDS011;5026;51.494;11.974;2024-03-02T01:20:53;57.33;;;26.27;;
9970;SDS011;5026;51.494;11.974;2024-03-02T01:23:21;54.63;;;25.10;;
9970;SDS011;5026;51.494;11.974;2024-03-02T01:25:50;52.37;;;25.93;;
9970;SDS011;5026;51.494;11.974;2024-03-02T01:28:17;52.93;;;25.37;;
9970;SDS011;5026;51.494;11.974;2024-03-02T01:30:45;53.30;;;24.10;;
9970;SDS011;5026;51.494;11.974;2024-03-02T01:33:12;53.77;;;23.57;;
9970;SDS011;5026;51.494;11.974;2024-03-02T01:35:39;58.60;;;24.67;;
9970;SDS011;5026;51.494;11.974;2024-03-02T01:38:06;52.47;;;23.30;;
9970;SDS011;5026;51.494;11.974;2024-03-02T01:40:33;44.13;;;22.90;;
9970;SDS011;5026;51.494;11.974;2024-03-02T01:43:02;50.97;;;24.47;;
9970;SDS011;5026;51.494;11.974;2024-03-02T01:45:30;50.10;;;23.93;;
9970;SDS011;5026;51.494;11.974;2024-03-02T01:47:57;44.40;;;22.97;;
9970;SDS011;5026;51.494;11.974;2024-03-02T01:50:24;49.20;;;23.90;;
9970;SDS011;5026;51.494;11.974;2024-03-02T01:52:52;46.50;;;22.63;;
9970;SDS011;5026;51.494;11.974;2024-03-02T01:55:19;51.00;;;23.43;;
9970;SDS011;5026;51.494;11.974;2024-03-02T01:57:47;52.13;;;22.27;;
9970;SDS011;5026;51.494;11.974;2024-03-02T02:00:16;47.50;;;22.70;;
9970;SDS011;5026;51.494;11.974;2024-03-02T02:02:43;45.10;;;22.90;;
9970;SDS011;5026;51.494;11.974;2024-03-02T02:05:10;47.10;;;22.60;;
9970;SDS011;5026;51.494;11.974;2024-03-02T02:07:38;44.93;;;23.10;;
9970;SDS011;5026;51.494;11.974;2024-03-02T02:10:05;44.87;;;23.83;;
9970;SDS011;5026;51.494;11.974;2024-03-02T02:12:32;44.07;;;22.07;;
9970;SDS011;5026;51.494;11.974;2024-03-02T02:14:59;45.80;;;21.47;;
9970;SDS011;5026;51.494;11.974;2024-03-02T02:17:28;45.40;;;21.60;;
9970;SDS011;5026;51.494;11.974;2024-03-02T02:19:55;43.00;;;21.63;;
9970;SDS011;5026;51.494;11.974;2024-03-02T02:22:23;42.97;;;20.63;;
9970;SDS011;5026;51.494;11.974;2024-03-02T02:24:50;40.43;;;20.03;;
9970;SDS011;5026;51.494;11.974;2024-03-02T02:27:17;43.37;;;20.23;;
9970;SDS011;5026;51.494;11.974;2024-03-02T02:29:44;43.70;;;21.40;;
9970;SDS011;5026;51.494;11.974;2024-03-02T02:32:11;42.70;;;20.17;;
9970;SDS011;5026;51.494;11.974;2024-03-02T02:34:38;45.50;;;21.03;;
9970;SDS011;5026;51.494;11.974;2024-03-02T02:37:05;39.67;;;20.93;;
9970;SDS011;5026;51.494;11.974;2024-03-02T02:39:33;39.50;;;19.63;;
9970;SDS011;5026;51.494;11.974;2024-03-02T02:42:00;40.37;;;21.30;;
9970;SDS011;5026;51.494;11.974;2024-03-02T02:44:27;42.27;;;20.53;;
9970;SDS011;5026;51.494;11.974;2024-03-02T02:46:54;37.37;;;20.07;;
9970;SDS011;5026;51.494;11.974;2024-03-02T02:49:22;39.43;;;19.43;;
9970;SDS011;5026;51.494;11.974;2024-03-02T02:51:48;44.67;;;19.53;;
9970;SDS011;5026;51.494;11.974;2024-03-02T02:54:16;37.73;;;19.40;;
9970;SDS011;5026;51.494;11.974;2024-03-02T02:56:44;40.60;;;19.87;;
9970;SDS011;5026;51.494;11.974;2024-03-02T02:59:11;37.20;;;19.43;;
9970;SDS011;5026;51.494;11.974;2024-03-02T03:01:38;38.13;;;19.60;;
9970;SDS011;5026;51.494;11.974;2024-03-02T03:04:05;38.23;;;19.00;;
9970;SDS011;5026;51.494;11.974;2024-03-02T03:06:32;40.93;;;20.17;;
9970;SDS011;5026;51.494;11.974;2024-03-02T03:08:58;30.93;;;17.70;;
9970;SDS011;5026;51.494;11.974;2024-03-02T03:11:25;35.77;;;18.80;;
9970;SDS011;5026;51.494;11.974;2024-03-02T03:13:54;38.40;;;20.23;;
9970;SDS011;5026;51.494;11.974;2024-03-02T03:16:21;37.87;;;18.87;;
9970;SDS011;5026;51.494;11.974;2024-03-02T03:18:48;37.80;;;19.67;;
9970;SDS011;5026;51.494;11.974;2024-03-02T03:21:16;36.20;;;19.83;;
9970;SDS011;5026;51.494;11.974;2024-03-02T03:23:43;38.33;;;20.53;;
9970;SDS011;5026;51.494;11.974;2024-03-02T03:26:10;38.13;;;18.50;;
9970;SDS011;5026;51.494;11.974;2024-03-02T03:28:37;37.97;;;19.73;;
9970;SDS011;5026;51.494;11.974;2024-03-02T03:31:05;41.50;;;20.50;;
9970;SDS011;5026;51.494;11.974;2024-03-02T03:33:32;40.07;;;20.40;;
9970;SDS011;5026;51.494;11.974;2024-03-02T03:35:59;39.70;;;20.27;;
9970;SDS011;5026;51.494;11.974;2024-03-02T03:38:28;36.30;;;18.10;;
9970;SDS011;5026;51.494;11.974;2024-03-02T03:40:55;39.10;;;19.77;;
9970;SDS011;5026;51.494;11.974;2024-03-02T03:43:22;40.90;;;20.30;;
9970;SDS011;5026;51.494;11.974;2024-03-02T03:45:49;43.37;;;20.67;;
9970;SDS011;5026;51.494;11.974;2024-03-02T03:48:17;38.87;;;20.47;;
9970;SDS011;5026;51.494;11.974;2024-03-02T03:50:44;47.83;;;22.20;;
9970;SDS011;5026;51.494;11.974;2024-03-02T03:53:10;41.27;;;19.97;;
9970;SDS011;5026;51.494;11.974;2024-03-02T03:55:39;43.03;;;21.60;;
9970;SDS011;5026;51.494;11.974;2024-03-02T03:58:06;39.17;;;21.37;;
9970;SDS011;5026;51.494;11.974;2024-03-02T04:00:33;42.60;;;20.77;;
9970;SDS011;5026;51.494;11.974;2024-03-02T04:03:00;40.43;;;20.70;;
9970;SDS011;5026;51.494;11.974;2024-03-02T04:05:28;41.77;;;21.33;;
9970;SDS011;5026;51.494;11.974;2024-03-02T04:07:55;44.90;;;20.17;;
9970;SDS011;5026;51.494;11.974;2024-03-02T04:10:22;46.37;;;21.83;;
9970;SDS011;5026;51.494;11.974;2024-03-02T04:12:49;37.90;;;19.50;;
9970;SDS011;5026;51.494;11.974;2024-03-02T04:15:16;38.83;;;19.97;;
9970;SDS011;5026;51.494;11.974;2024-03-02T04:17:44;41.07;;;20.53;;
9970;SDS011;5026;51.494;11.974;2024-03-02T04:20:11;38.90;;;19.77;;
9970;SDS011;5026;51.494;11.974;2024-03-02T04:22:40;37.60;;;18.47;;
9970;SDS011;5026;51.494;11.974;2024-03-02T04:25:07;39.10;;;19.03;;
9970;SDS011;5026;51.494;11.974;2024-03-02T04:27:34;38.43;;;20.13;;
9970;SDS011;5026;51.494;11.974;2024-03-02T04:30:01;35.77;;;18.30;;
9970;SDS011;5026;51.494;11.974;2024-03-02T04:32:30;37.10;;;19.83;;
9970;SDS011;5026;51.494;11.974;2024-03-02T04:34:57;36.67;;;19.27;;
9970;SDS011;5026;51.494;11.974;2024-03-02T04:37:24;42.00;;;19.27;;
9970;SDS011;5026;51.494;11.974;2024-03-02T04:39:52;37.77;;;18.73;;
9970;SDS011;5026;51.494;11.974;2024-03-02T04:42:19;33.67;;;18.80;;
9970;SDS011;5026;51.494;11.974;2024-03-02T04:44:46;32.60;;;16.57;;
9970;SDS011;5026;51.494;11.974;2024-03-02T04:47:13;31.73;;;17.40;;
9970;SDS011;5026;51.494;11.974;2024-03-02T04:49:40;35.13;;;17.67;;
9970;SDS011;5026;51.494;11.974;2024-03-02T04:52:06;27.33;;;16.20;;
9970;SDS011;5026;51.494;11.974;2024-03-02T04:54:33;30.10;;;16.43;;
9970;SDS011;5026;51.494;11.974;2024-03-02T04:57:22;32.13;;;17.27;;
9970;SDS011;5026;51.494;11.974;2024-03-02T04:59:49;27.57;;;15.67;;
9970;SDS011;5026;51.494;11.974;2024-03-02T05:02:16;27.97;;;15.80;;
9970;SDS011;5026;51.494;11.974;2024-03-02T05:04:43;30.50;;;15.40;;
9970;SDS011;5026;51.494;11.974;2024-03-02T05:07:10;33.87;;;17.33;;
9970;SDS011;5026;51.494;11.974;2024-03-02T05:09:37;29.87;;;15.43;;
9970;SDS011;5026;51.494;11.974;2024-03-02T05:12:04;29.33;;;15.00;;
9970;SDS011;5026;51.494;11.974;2024-03-02T05:14:55;25.93;;;14.37;;
9970;SDS011;5026;51.494;11.974;2024-03-02T05:17:22;25.83;;;14.87;;
9970;SDS011;5026;51.494;11.974;2024-03-02T05:19:49;28.13;;;14.70;;
9970;SDS011;5026;51.494;11.974;2024-03-02T05:22:16;25.07;;;13.50;;
9970;SDS011;5026;51.494;11.974;2024-03-02T05:24:43;32.83;;;15.37;;
9970;SDS011;5026;51.494;11.974;2024-03-02T05:27:10;31.50;;;14.70;;
9970;SDS011;5026;51.494;11.974;2024-03-02T05:29:37;29.00;;;14.83;;
9970;SDS011;5026;51.494;11.974;2024-03-02T05:32:05;29.27;;;14.90;;
9970;SDS011;5026;51.494;11.974;2024-03-02T05:34:33;26.93;;;13.97;;
9970;SDS011;5026;51.494;11.974;2024-03-02T05:37:00;30.90;;;14.70;;
9970;SDS011;5026;51.494;11.974;2024-03-02T05:39:27;28.93;;;15.10;;
9970;SDS011;5026;51.494;11.974;2024-03-02T05:41:54;29.17;;;15.83;;
9970;SDS011;5026;51.494;11.974;2024-03-02T05:44:21;31.03;;;14.67;;
9970;SDS011;5026;51.494;11.974;2024-03-02T05:46:48;31.30;;;15.43;;
9970;SDS011;5026;51.494;11.974;2024-03-02T05:49:16;26.73;;;15.43;;
9970;SDS011;5026;51.494;11.974;2024-03-02T05:51:43;28.50;;;14.80;;
9970;SDS011;5026;51.494;11.974;2024-03-02T05:54:10;28.47;;;16.10;;
9970;SDS011;5026;51.494;11.974;2024-03-02T05:56:37;30.20;;;15.57;;
9970;SDS011;5026;51.494;11.974;2024-03-02T05:59:04;27.43;;;14.33;;
9970;SDS011;5026;51.494;11.974;2024-03-02T06:01:37;31.40;;;14.37;;
9970;SDS011;5026;51.494;11.974;2024-03-02T06:04:04;28.80;;;14.97;;
9970;SDS011;5026;51.494;11.974;2024-03-02T06:06:32;31.00;;;16.17;;
9970;SDS011;5026;51.494;11.974;2024-03-02T06:08:59;29.20;;;15.83;;
9970;SDS011;5026;51.494;11.974;2024-03-02T06:11:27;29.60;;;15.60;;
9970;SDS011;5026;51.494;11.974;2024-03-02T06:13:54;35.73;;;17.60;;
9970;SDS011;5026;51.494;11.974;2024-03-02T06:16:21;31.60;;;16.27;;
9970;SDS011;5026;51.494;11.974;2024-03-02T06:18:48;28.80;;;15.10;;
9970;SDS011;5026;51.494;11.974;2024-03-02T06:21:15;31.47;;;16.57;;
9970;SDS011;5026;51.494;11.974;2024-03-02T06:23:44;32.83;;;17.47;;
9970;SDS011;5026;51.494;11.974;2024-03-02T06:26:12;29.17;;;15.27;;
9970;SDS011;5026;51.494;11.974;2024-03-02T06:28:39;29.40;;;15.53;;
9970;SDS011;5026;51.494;11.974;2024-03-02T06:31:06;32.77;;;16.53;;
9970;SDS011;5026;51.494;11.974;2024-03-02T06:33:31;33.70;;;16.40;;
9970;SDS011;5026;51.494;11.974;2024-03-02T06:35:58;35.23;;;17.50;;
9970;SDS011;5026;51.494;11.974;2024-03-02T06:38:24;31.33;;;16.60;;
9970;SDS011;5026;51.494;11.974;2024-03-02T06:40:52;31.33;;;16.43;;
9970;SDS011;5026;51.494;11.974;2024-03-02T06:43:20;33.60;;;16.37;;
9970;SDS011;5026;51.494;11.974;2024-03-02T06:45:48;31.43;;;16.37;;
9970;SDS011;5026;51.494;11.974;2024-03-02T06:48:15;32.53;;;16.57;;
9970;SDS011;5026;51.494;11.974;2024-03-02T06:50:45;34.10;;;17.53;;
9970;SDS011;5026;51.494;11.974;2024-03-02T06:53:12;32.37;;;16.13;;
9970;SDS011;5026;51.494;11.974;2024-03-02T06:55:42;33.73;;;16.97;;
9970;SDS011;5026;51.494;11.974;2024-03-02T06:58:11;35.77;;;17.57;;
9970;SDS011;5026;51.494;11.974;2024-03-02T07:00:37;33.80;;;18.37;;
9970;SDS011;5026;51.494;11.974;2024-03-02T07:03:04;37.50;;;18.07;;
9970;SDS011;5026;51.494;11.974;2024-03-02T07:05:31;33.17;;;17.20;;
9970;SDS011;5026;51.494;11.974;2024-03-02T07:07:58;34.27;;;17.43;;
9970;SDS011;5026;51.494;11.974;2024-03-02T07:10:26;36.80;;;18.73;;
9970;SDS011;5026;51.494;11.974;2024-03-02T07:12:53;34.50;;;17.40;;
9970;SDS011;5026;51.494;11.974;2024-03-02T07:15:21;38.83;;;18.37;;
9970;SDS011;5026;51.494;11.974;2024-03-02T07:18:08;33.23;;;17.20;;
9970;SDS011;5026;51.494;11.974;2024-03-02T07:20:35;34.93;;;16.50;;
9970;SDS011;5026;51.494;11.974;2024-03-02T07:23:04;32.30;;;17.13;;
9970;SDS011;5026;51.494;11.974;2024-03-02T07:25:31;29.67;;;16.00;;
9970;SDS011;5026;51.494;11.974;2024-03-02T07:27:57;36.57;;;17.43;;
9970;SDS011;5026;51.494;11.974;2024-03-02T07:30:26;34.27;;;16.90;;
9970;SDS011;5026;51.494;11.974;2024-03-02T07:32:53;31.60;;;16.83;;
9970;SDS011;5026;51.494;11.974;2024-03-02T07:35:19;36.43;;;17.00;;
9970;SDS011;5026;51.494;11.974;2024-03-02T07:37:47;31.40;;;15.90;;
9970;SDS011;5026;51.494;11.974;2024-03-02T07:40:14;33.93;;;16.23;;
9970;SDS011;5026;51.494;11.974;2024-03-02T07:42:41;29.80;;;16.37;;
9970;SDS011;5026;51.494;11.974;2024-03-02T07:45:08;31.43;;;15.83;;
9970;SDS011;5026;51.494;11.974;2024-03-02T07:47:37;32.47;;;17.30;;
9970;SDS011;5026;51.494;11.974;2024-03-02T07:50:05;32.43;;;16.37;;
9970;SDS011;5026;51.494;11.974;2024-03-02T07:52:32;34.20;;;17.27;;
9970;SDS011;5026;51.494;11.974;2024-03-02T07:54:59;35.10;;;17.20;;
9970;SDS011;5026;51.494;11.974;2024-03-02T07:57:26;36.70;;;18.03;;
9970;SDS011;5026;51.494;11.974;2024-03-02T07:59:53;37.43;;;18.03;;
9970;SDS011;5026;51.494;11.974;2024-03-02T08:02:20;41.10;;;18.53;;
9970;SDS011;5026;51.494;11.974;2024-03-02T08:04:49;40.47;;;19.50;;
9970;SDS011;5026;51.494;11.974;2024-03-02T08:07:16;37.87;;;19.17;;
9970;SDS011;5026;51.494;11.974;2024-03-02T08:09:43;42.67;;;20.10;;
9970;SDS011;5026;51.494;11.974;2024-03-02T08:12:10;42.23;;;18.47;;
9970;SDS011;5026;51.494;11.974;2024-03-02T08:14:37;37.00;;;18.33;;
9970;SDS011;5026;51.494;11.974;2024-03-02T08:17:05;33.77;;;17.67;;
9970;SDS011;5026;51.494;11.974;2024-03-02T08:19:34;35.07;;;18.23;;
9970;SDS011;5026;51.494;11.974;2024-03-02T08:22:04;34.37;;;17.70;;
9970;SDS011;5026;51.494;11.974;2024-03-02T08:24:31;36.23;;;18.57;;
9970;SDS011;5026;51.494;11.974;2024-03-02T08:26:58;36.20;;;18.40;;
9970;SDS011;5026;51.494;11.974;2024-03-02T08:29:26;34.10;;;17.17;;
9970;SDS011;5026;51.494;11.974;2024-03-02T08:31:53;38.83;;;17.40;;
9970;SDS011;5026;51.494;11.974;2024-03-02T08:34:20;38.40;;;19.67;;
9970;SDS011;5026;51.494;11.974;2024-03-02T08:36:47;37.70;;;18.10;;
9970;SDS011;5026;51.494;11.974;2024-03-02T08:39:16;35.00;;;18.77;;
9970;SDS011;5026;51.494;11.974;2024-03-02T08:41:44;33.13;;;18.47;;
9970;SDS011;5026;51.494;11.974;2024-03-02T08:44:12;35.03;;;18.40;;
9970;SDS011;5026;51.494;11.974;2024-03-02T08:46:39;35.80;;;18.97;;
9970;SDS011;5026;51.494;11.974;2024-03-02T08:49:07;35.33;;;17.87;;
9970;SDS011;5026;51.494;11.974;2024-03-02T08:51:34;35.77;;;17.87;;
9970;SDS011;5026;51.494;11.974;2024-03-02T08:54:01;39.23;;;19.23;;
9970;SDS011;5026;51.494;11.974;2024-03-02T08:56:30;36.63;;;17.60;;
9970;SDS011;5026;51.494;11.974;2024-03-02T08:58:57;33.40;;;18.73;;
9970;SDS011;5026;51.494;11.974;2024-03-02T09:01:24;38.07;;;19.37;;
9970;SDS011;5026;51.494;11.974;2024-03-02T09:03:51;38.17;;;18.57;;
9970;SDS011;5026;51.494;11.974;2024-03-02T09:06:18;38.53;;;19.40;;
9970;SDS011;5026;51.494;11.974;2024-03-02T09:08:46;39.13;;;18.00;;
9970;SDS011;5026;51.494;11.974;2024-03-02T09:11:15;41.30;;;19.67;;
9970;SDS011;5026;51.494;11.974;2024-03-02T09:13:43;33.80;;;16.90;;
9970;SDS011;5026;51.494;11.974;2024-03-02T09:16:10;40.10;;;18.77;;
9970;SDS011;5026;51.494;11.974;2024-03-02T09:18:37;34.37;;;17.77;;
9970;SDS011;5026;51.494;11.974;2024-03-02T09:21:03;32.63;;;17.23;;
9970;SDS011;5026;51.494;11.974;2024-03-02T09:23:30;35.10;;;17.37;;
9970;SDS011;5026;51.494;11.974;2024-03-02T09:25:58;35.90;;;16.60;;
9970;SDS011;5026;51.494;11.974;2024-03-02T09:28:25;34.90;;;16.77;;
9970;SDS011;5026;51.494;11.974;2024-03-02T09:30:53;35.20;;;17.37;;
9970;SDS011;5026;51.494;11.974;2024-03-02T09:33:20;29.33;;;14.47;;
9970;SDS011;5026;51.494;11.974;2024-03-02T09:35:47;30.27;;;15.37;;
9970;SDS011;5026;51.494;11.974;2024-03-02T09:38:15;31.30;;;15.80;;
9970;SDS011;5026;51.494;11.974;2024-03-02T09:40:42;33.13;;;17.10;;
9970;SDS011;5026;51.494;11.974;2024-03-02T09:43:09;32.40;;;17.03;;
9970;SDS011;5026;51.494;11.974;2024-03-02T09:45:36;35.93;;;17.37;;
9970;SDS011;5026;51.494;11.974;2024-03-02T09:48:06;36.33;;;17.23;;
9970;SDS011;5026;51.494;11.974;2024-03-02T09:50:33;29.73;;;16.30;;
9970;SDS011;5026;51.494;11.974;2024-03-02T09:53:00;29.40;;;15.63;;
9970;SDS011;5026;51.494;11.974;2024-03-02T09:55:27;33.40;;;16.67;;
9970;SDS011;5026;51.494;11.974;2024-03-02T09:57:54;32.10;;;16.90;;
9970;SDS011;5026;51.494;11.974;2024-03-02T10:00:21;31.17;;;16.13;;
9970;SDS011;5026;51.494;11.974;2024-03-02T10:02:48;31.27;;;15.67;;
9970;SDS011;5026;51.494;11.974;2024-03-02T10:05:24;29.73;;;14.07;;
9970;SDS011;5026;51.494;11.974;2024-03-02T10:07:58;27.60;;;15.20;;
9970;SDS011;5026;51.494;11.974;2024-03-02T10:10:26;34.58;;;15.50;;
9970;SDS011;5026;51.494;11.974;2024-03-02T10:13:05;25.23;;;14.00;;
9970;SDS011;5026;51.494;11.974;2024-03-02T10:15:33;30.57;;;14.73;;
9970;SDS011;5026;51.494;11.974;2024-03-02T10:18:01;27.90;;;15.23;;
9970;SDS011;5026;51.494;11.974;2024-03-02T10:20:30;30.47;;;14.37;;
9970;SDS011;5026;51.494;11.974;2024-03-02T10:23:09;31.40;;;14.77;;
9970;SDS011;5026;51.494;11.974;2024-03-02T10:25:37;26.93;;;14.03;;
9970;SDS011;5026;51.494;11.974;2024-03-02T10:28:04;25.87;;;14.10;;
9970;SDS011;5026;51.494;11.974;2024-03-02T10:30:31;25.77;;;13.57;;
9970;SDS011;5026;51.494;11.974;2024-03-02T10:32:59;26.88;;;14.23;;
9970;SDS011;5026;51.494;11.974;2024-03-02T10:35:27;32.15;;;15.43;;
9970;SDS011;5026;51.494;11.974;2024-03-02T10:37:57;25.23;;;13.67;;
9970;SDS011;5026;51.494;11.974;2024-03-02T10:40:26;26.80;;;14.32;;
9970;SDS011;5026;51.494;11.974;2024-03-02T10:42:53;26.00;;;13.73;;
9970;SDS011;5026;51.494;11.974;2024-03-02T10:45:20;24.95;;;14.50;;
9970;SDS011;5026;51.494;11.974;2024-03-02T10:47:48;26.58;;;13.25;;
9970;SDS011;5026;51.494;11.974;2024-03-02T10:50:16;22.02;;;12.68;;
9970;SDS011;5026;51.494;11.974;2024-03-02T10:52:43;24.17;;;13.02;;
9970;SDS011;5026;51.494;11.974;2024-03-02T10:55:12;25.52;;;13.63;;
9970;SDS011;5026;51.494;11.974;2024-03-02T10:57:41;24.77;;;13.55;;
9970;SDS011;5026;51.494;11.974;2024-03-02T11:00:12;25.20;;;13.98;;
9970;SDS011;5026;51.494;11.974;2024-03-02T11:02:46;26.83;;;13.40;;
9970;SDS011;5026;51.494;11.974;2024-03-02T11:05:17;27.08;;;13.02;;
9970;SDS011;5026;51.494;11.974;2024-03-02T11:07:52;24.10;;;13.07;;
9970;SDS011;5026;51.494;11.974;2024-03-02T11:10:24;22.42;;;12.52;;
9970;SDS011;5026;51.494;11.974;2024-03-02T11:12:53;28.02;;;13.00;;
9970;SDS011;5026;51.494;11.974;2024-03-02T11:15:25;26.00;;;13.00;;
9970;SDS011;5026;51.494;11.974;2024-03-02T11:17:54;21.08;;;12.23;;
9970;SDS011;5026;51.494;11.974;2024-03-02T11:20:22;22.23;;;12.95;;
9970;SDS011;5026;51.494;11.974;2024-03-02T11:22:50;22.58;;;12.57;;
9970;SDS011;5026;51.494;11.974;2024-03-02T11:25:24;21.45;;;12.32;;
9970;SDS011;5026;51.494;11.974;2024-03-02T11:28:03;24.08;;;12.63;;
9970;SDS011;5026;51.494;11.974;2024-03-02T11:30:49;23.58;;;12.32;;
9970;SDS011;5026;51.494;11.974;2024-03-02T11:33:22;23.92;;;12.52;;
9970;SDS011;5026;51.494;11.974;2024-03-02T11:35:52;22.65;;;12.63;;
9970;SDS011;5026;51.494;11.974;2024-03-02T11:38:19;21.20;;;11.98;;
9970;SDS011;5026;51.494;11.974;2024-03-02T11:40:47;21.95;;;11.88;;
9970;SDS011;5026;51.494;11.974;2024-03-02T11:43:14;19.50;;;11.98;;
9970;SDS011;5026;51.494;11.974;2024-03-02T11:45:42;23.50;;;12.45;;
9970;SDS011;5026;51.494;11.974;2024-03-02T11:48:11;22.23;;;12.38;;
9970;SDS011;5026;51.494;11.974;2024-03-02T11:50:40;21.90;;;12.40;;
9970;SDS011;5026;51.494;11.974;2024-03-02T11:53:09;22.52;;;12.23;;
9970;SDS011;5026;51.494;11.974;2024-03-02T11:55:38;19.77;;;11.77;;
9970;SDS011;5026;51.494;11.974;2024-03-02T11:58:07;18.45;;;12.02;;
9970;SDS011;5026;51.494;11.974;2024-03-02T12:00:34;26.15;;;12.48;;
9970;SDS011;5026;51.494;11.974;2024-03-02T12:03:01;22.65;;;12.93;;
9970;SDS011;5026;51.494;11.974;2024-03-02T12:05:33;19.40;;;11.40;;
9970;SDS011;5026;51.494;11.974;2024-03-02T12:08:00;19.75;;;10.88;;
9970;SDS011;5026;51.494;11.974;2024-03-02T12:10:29;20.15;;;11.00;;
9970;SDS011;5026;51.494;11.974;2024-03-02T12:12:56;14.93;;;10.20;;
9970;SDS011;5026;51.494;11.974;2024-03-02T12:15:26;18.60;;;10.52;;
9970;SDS011;5026;51.494;11.974;2024-03-02T12:17:54;19.48;;;10.65;;
9970;SDS011;5026;51.494;11.974;2024-03-02T12:20:22;19.65;;;10.88;;
9970;SDS011;5026;51.494;11.974;2024-03-02T12:22:50;20.08;;;11.13;;
9970;SDS011;5026;51.494;11.974;2024-03-02T12:25:18;17.30;;;9.95;;
9970;SDS011;5026;51.494;11.974;2024-03-02T12:27:46;21.00;;;11.73;;
9970;SDS011;5026;51.494;11.974;2024-03-02T12:30:14;16.38;;;9.77;;
9970;SDS011;5026;51.494;11.974;2024-03-02T12:32:43;19.20;;;10.23;;
9970;SDS011;5026;51.494;11.974;2024-03-02T12:35:11;19.00;;;11.15;;
9970;SDS011;5026;51.494;11.974;2024-03-02T12:37:43;18.25;;;10.38;;
9970;SDS011;5026;51.494;11.974;2024-03-02T12:40:10;21.10;;;11.15;;
9970;SDS011;5026;51.494;11.974;2024-03-02T12:42:37;16.85;;;9.85;;
9970;SDS011;5026;51.494;11.974;2024-03-02T12:45:05;18.15;;;10.65;;
9970;SDS011;5026;51.494;11.974;2024-03-02T12:47:32;16.55;;;10.25;;
9970;SDS011;5026;51.494;11.974;2024-03-02T12:50:02;18.35;;;10.70;;
9970;SDS011;5026;51.494;11.974;2024-03-02T12:52:30;15.25;;;10.10;;
9970;SDS011;5026;51.494;11.974;2024-03-02T12:54:57;15.23;;;9.25;;
9970;SDS011;5026;51.494;11.974;2024-03-02T12:57:25;16.58;;;9.25;;
9970;SDS011;5026;51.494;11.974;2024-03-02T12:59:56;16.77;;;9.32;;
9970;SDS011;5026;51.494;11.974;2024-03-02T13:02:27;15.38;;;8.90;;
9970;SDS011;5026;51.494;11.974;2024-03-02T13:04:55;15.15;;;9.07;;
9970;SDS011;5026;51.494;11.974;2024-03-02T13:07:24;14.73;;;9.05;;
9970;SDS011;5026;51.494;11.974;2024-03-02T13:09:51;16.88;;;8.93;;
9970;SDS011;5026;51.494;11.974;2024-03-02T13:12:20;15.70;;;8.55;;
9970;SDS011;5026;51.494;11.974;2024-03-02T13:14:48;16.00;;;9.07;;
9970;SDS011;5026;51.494;11.974;2024-03-02T13:17:17;11.68;;;7.75;;
9970;SDS011;5026;51.494;11.974;2024-03-02T13:19:53;13.73;;;8.82;;
9970;SDS011;5026;51.494;11.974;2024-03-02T13:22:21;14.98;;;7.45;;
9970;SDS011;5026;51.494;11.974;2024-03-02T13:24:49;12.35;;;7.95;;
9970;SDS011;5026;51.494;11.974;2024-03-02T13:27:17;10.75;;;7.25;;
9970;SDS011;5026;51.494;11.974;2024-03-02T13:29:45;12.25;;;7.50;;
9970;SDS011;5026;51.494;11.974;2024-03-02T13:32:13;14.52;;;8.35;;
9970;SDS011;5026;51.494;11.974;2024-03-02T13:34:40;13.10;;;7.82;;
9970;SDS011;5026;51.494;11.974;2024-03-02T13:37:07;11.23;;;6.90;;
9970;SDS011;5026;51.494;11.974;2024-03-02T13:39:34;10.75;;;6.80;;
9970;SDS011;5026;51.494;11.974;2024-03-02T13:42:07;12.43;;;7.88;;
9970;SDS011;5026;51.494;11.974;2024-03-02T13:44:35;13.32;;;7.63;;
9970;SDS011;5026;51.494;11.974;2024-03-02T13:47:03;15.15;;;7.55;;
9970;SDS011;5026;51.494;11.974;2024-03-02T13:49:30;11.45;;;6.50;;
9970;SDS011;5026;51.494;11.974;2024-03-02T13:52:01;9.52;;;6.32;;
9970;SDS011;5026;51.494;11.974;2024-03-02T13:54:36;8.93;;;5.88;;
9970;SDS011;5026;51.494;11.974;2024-03-02T13:57:03;8.90;;;5.32;;
9970;SDS011;5026;51.494;11.974;2024-03-02T13:59:32;11.63;;;7.07;;
9970;SDS011;5026;51.494;11.974;2024-03-02T14:01:59;10.13;;;6.68;;
9970;SDS011;5026;51.494;11.974;2024-03-02T14:04:27;12.40;;;7.45;;
9970;SDS011;5026;51.494;11.974;2024-03-02T14:06:54;14.82;;;7.75;;
9970;SDS011;5026;51.494;11.974;2024-03-02T14:09:21;15.93;;;7.72;;
9970;SDS011;5026;51.494;11.974;2024-03-02T14:11:49;11.57;;;7.50;;
9970;SDS011;5026;51.494;11.974;2024-03-02T14:14:16;9.60;;;6.18;;
9970;SDS011;5026;51.494;11.974;2024-03-02T14:16:44;12.30;;;6.85;;
9970;SDS011;5026;51.494;11.974;2024-03-02T14:19:11;9.35;;;6.10;;
9970;SDS011;5026;51.494;11.974;2024-03-02T14:21:38;10.60;;;6.78;;
9970;SDS011;5026;51.494;11.974;2024-03-02T14:24:06;11.38;;;5.95;;
9970;SDS011;5026;51.494;11.974;2024-03-02T14:26:33;12.45;;;6.72;;
9970;SDS011;5026;51.494;11.974;2024-03-02T14:29:01;9.23;;;5.80;;
9970;SDS011;5026;51.494;11.974;2024-03-02T14:31:28;12.85;;;6.60;;
9970;SDS011;5026;51.494;11.974;2024-03-02T14:33:57;9.40;;;6.13;;
9970;SDS011;5026;51.494;11.974;2024-03-02T14:36:24;11.85;;;5.97;;
9970;SDS011;5026;51.494;11.974;2024-03-02T14:38:52;11.43;;;6.85;;
9970;SDS011;5026;51.494;11.974;2024-03-02T14:41:19;10.45;;;6.25;;
9970;SDS011;5026;51.494;11.974;2024-03-02T14:43:46;10.00;;;6.70;;
9970;SDS011;5026;51.494;11.974;2024-03-02T14:46:14;10.57;;;5.85;;